Time;durP1;ratioP1;P1;durP2;ratioP2;P2;SDS_P1;SDS_P2;PMS_P1;PMS_P2;Temp;Humidity;BMP_temperature;BMP_pressure;BME280_temperature;BME280_humidity;BME280_pressure;Samples;Min_cycle;Max_cycle;Signal;HPM_P1;HPM_P2
2022/01/25 00:27:00;;;;;;;77.67;35.20;;;4.30;99.90;;;;;;5057783;28;20045;-74
2022/01/25 00:29:34;;;;;;;80.23;35.27;;;4.30;99.90;;;;;;5055189;28;20041;-74
2022/01/25 00:32:01;;;;;;;73.07;34.83;;;4.30;99.90;;;;;;5055370;28;20080;-74
2022/01/25 00:34:27;;;;;;;75.43;35.13;;;4.30;99.90;;;;;;5055325;28;20111;-74
2022/01/25 00:36:52;;;;;;;74.97;34.97;;;4.30;99.90;;;;;;5039324;28;20104;-76
2022/01/25 00:39:18;;;;;;;75.73;36.07;;;4.30;99.90;;;;;;5055669;28;20068;-75
2022/01/25 00:41:44;;;;;;;72.80;33.80;;;4.30;99.90;;;;;;5056489;28;20048;-74
2022/01/25 00:44:11;;;;;;;73.10;34.60;;;4.40;99.90;;;;;;5055454;28;20041;-74
2022/01/25 00:46:37;;;;;;;75.03;34.57;;;4.40;99.90;;;;;;5055224;28;20056;-73
2022/01/25 00:49:04;;;;;;;77.13;34.70;;;4.40;99.90;;;;;;5039051;28;20097;-74
2022/01/25 00:54:28;;;;;;;71.13;35.33;;;4.30;99.90;;;;;;5055328;28;20194;-74
2022/01/25 00:56:52;;;;;;;77.87;35.90;;;4.30;99.90;;;;;;5057106;28;20049;-74
2022/01/25 00:59:21;;;;;;;73.77;35.00;;;4.30;99.90;;;;;;5022600;28;20516;-74
2022/01/25 01:01:50;;;;;;;75.60;34.30;;;4.30;99.90;;;;;;5050296;28;20044;-73
2022/01/25 01:04:18;;;;;;;73.03;34.80;;;4.30;99.90;;;;;;5057263;28;20528;-74
2022/01/25 01:06:45;;;;;;;74.17;34.37;;;4.30;99.90;;;;;;5060993;28;20087;-74
2022/01/25 01:09:12;;;;;;;76.63;35.30;;;4.30;99.90;;;;;;5062956;28;20059;-76
2022/01/25 01:11:48;;;;;;;78.40;34.67;;;4.30;99.90;;;;;;5064173;28;20053;-74
2022/01/25 01:14:25;;;;;;;80.63;35.37;;;4.30;99.90;;;;;;5057160;28;20049;-74
2022/01/25 01:31:13;;;;;;;70.77;32.83;;;4.30;99.90;;;;;;5052796;28;20048;-75
2022/01/25 01:44:38;;;;;;;75.73;34.47;;;4.30;99.90;;;;;;5054527;28;20467;-74
2022/01/25 01:47:08;;;;;;;80.60;36.13;;;4.30;99.90;;;;;;5037320;28;20164;-74
2022/01/25 01:49:41;;;;;;;73.97;34.00;;;4.30;99.90;;;;;;5054560;28;20049;-74
2022/01/25 01:52:07;;;;;;;76.07;34.07;;;4.30;99.90;;;;;;5053885;28;20052;-74
2022/01/25 01:54:33;;;;;;;75.60;34.13;;;4.30;99.90;;;;;;5053477;28;20057;-75
2022/01/25 01:56:59;;;;;;;77.70;34.67;;;4.30;99.90;;;;;;5054456;28;20112;-74
2022/01/25 01:59:25;;;;;;;78.17;36.60;;;4.30;99.90;;;;;;5037105;28;20033;-74
2022/01/25 02:01:52;;;;;;;78.47;36.23;;;4.20;99.90;;;;;;5037060;28;20076;-74
2022/01/25 02:04:19;;;;;;;77.57;35.10;;;4.20;99.90;;;;;;5056064;28;20049;-74
2022/01/25 02:06:45;;;;;;;76.63;36.67;;;4.20;99.90;;;;;;5054307;28;20157;-74
2022/01/25 02:09:11;;;;;;;80.93;36.57;;;4.20;99.90;;;;;;5053116;28;20045;-73
2022/01/25 02:11:38;;;;;;;74.43;35.03;;;4.20;99.90;;;;;;5055254;28;20052;-74
2022/01/25 02:14:08;;;;;;;73.60;34.70;;;4.20;99.90;;;;;;5064422;28;20052;-74
2022/01/25 02:24:41;;;;;;;75.83;35.97;;;4.20;99.90;;;;;;5053505;28;20033;-73
2022/01/25 02:27:08;;;;;;;78.57;36.77;;;4.20;99.90;;;;;;5037581;28;20063;-73
2022/01/25 02:29:34;;;;;;;80.53;36.93;;;4.20;99.90;;;;;;5055368;28;20041;-74
2022/01/25 02:32:00;;;;;;;80.37;37.03;;;4.10;99.90;;;;;;5046634;28;20120;-74
2022/01/25 02:34:26;;;;;;;81.10;37.30;;;4.20;99.90;;;;;;5065757;28;20078;-74
2022/01/25 02:37:00;;;;;;;77.67;35.73;;;4.20;99.90;;;;;;5055680;28;20056;-73
2022/01/25 02:39:26;;;;;;;73.20;34.50;;;4.20;99.90;;;;;;5037396;28;20107;-74
2022/01/25 02:41:52;;;;;;;78.90;35.23;;;4.20;99.90;;;;;;5058157;28;20041;-74
2022/01/25 02:44:24;;;;;;;73.97;33.80;;;4.10;99.90;;;;;;5053676;28;20063;-74
2022/01/25 02:49:32;;;;;;;75.43;34.37;;;4.10;99.90;;;;;;5053635;28;20052;-74
2022/01/25 02:52:00;;;;;;;75.77;35.03;;;4.20;99.90;;;;;;5038083;28;20060;-74
2022/01/25 02:54:26;;;;;;;74.37;35.20;;;4.20;99.90;;;;;;5060059;28;20104;-74
2022/01/25 02:56:53;;;;;;;78.17;35.80;;;4.20;99.90;;;;;;5050057;28;20128;-74
2022/01/25 02:59:19;;;;;;;81.60;36.60;;;4.20;99.90;;;;;;5052740;28;20100;-74
2022/01/25 03:01:47;;;;;;;81.87;36.80;;;4.20;99.90;;;;;;5044411;28;20052;-74
2022/01/25 03:04:14;;;;;;;77.13;36.20;;;4.10;99.90;;;;;;5036916;28;20124;-74
2022/01/25 03:06:42;;;;;;;75.70;35.33;;;4.10;99.90;;;;;;5056132;28;20040;-74
2022/01/25 03:09:08;;;;;;;76.50;37.03;;;4.20;99.90;;;;;;5053574;28;20096;-74
2022/01/25 03:11:34;;;;;;;81.37;37.33;;;4.10;99.90;;;;;;5023938;28;20507;-74
2022/01/25 03:14:03;;;;;;;73.70;34.63;;;4.10;99.90;;;;;;5054469;28;20147;-74
2022/01/25 03:16:45;;;;;;;77.50;35.33;;;4.20;99.90;;;;;;5054163;28;20076;-75
2022/01/25 03:22:43;;;;;;;74.38;32.92;;;4.20;99.90;;;;;;5012020;28;20164;-74
2022/01/25 03:25:02;;;;;;;73.97;35.10;;;4.20;99.90;;;;;;5053685;28;20052;-74
2022/01/25 03:27:28;;;;;;;74.33;33.07;;;4.20;99.90;;;;;;5057811;28;20048;-74
2022/01/25 03:29:53;;;;;;;71.90;32.83;;;4.20;99.90;;;;;;5060297;28;20059;-74
2022/01/25 03:32:19;;;;;;;72.90;34.03;;;4.20;99.90;;;;;;5053355;28;20071;-75
2022/01/25 03:34:45;;;;;;;76.20;33.80;;;4.10;99.90;;;;;;5086161;28;20063;-74
2022/01/25 03:37:11;;;;;;;72.23;32.60;;;4.20;99.90;;;;;;5041108;28;20048;-74
2022/01/25 03:39:36;;;;;;;72.03;34.93;;;4.20;99.90;;;;;;5053110;28;20057;-76
2022/01/25 03:42:07;;;;;;;73.10;33.07;;;4.10;99.90;;;;;;5052917;28;20496;-74
2022/01/25 03:44:32;;;;;;;77.83;34.83;;;4.20;99.90;;;;;;5054293;28;20146;-75
2022/01/25 03:47:05;;;;;;;77.00;33.77;;;4.20;99.90;;;;;;5056769;28;20342;-74
2022/01/25 03:52:16;;;;;;;70.53;33.93;;;4.20;99.90;;;;;;5042384;28;20145;-74
2022/01/25 03:54:42;;;;;;;73.73;33.00;;;4.20;99.90;;;;;;5039589;28;20444;-74
2022/01/25 03:57:08;;;;;;;71.97;34.13;;;4.10;99.90;;;;;;5056700;28;20049;-74
2022/01/25 03:59:34;;;;;;;71.53;33.40;;;4.10;99.90;;;;;;5039370;28;20045;-74
2022/01/25 04:01:59;;;;;;;71.67;32.63;;;4.10;99.90;;;;;;5056728;28;20140;-74
2022/01/25 04:04:26;;;;;;;73.43;32.93;;;4.10;99.90;;;;;;5038996;28;20488;-74
2022/01/25 04:06:53;;;;;;;69.43;33.93;;;4.10;99.90;;;;;;5059274;28;20041;-75
2022/01/25 04:09:21;;;;;;;74.87;32.93;;;4.10;99.90;;;;;;5058318;28;20106;-75
2022/01/25 04:11:47;;;;;;;72.17;33.73;;;4.20;99.90;;;;;;5055455;28;20516;-75
2022/01/25 04:14:13;;;;;;;78.43;34.40;;;4.20;99.90;;;;;;5060658;28;20045;-75
2022/01/25 04:16:56;;;;;;;75.03;34.43;;;4.20;99.90;;;;;;5054391;28;20048;-74
2022/01/25 04:19:34;;;;;;;76.73;35.07;;;4.20;99.90;;;;;;5061197;28;20044;-74
2022/01/25 04:27:29;;;;;;;74.90;36.20;;;4.20;99.90;;;;;;5065222;28;20073;-74
2022/01/25 04:29:55;;;;;;;73.70;34.67;;;4.10;99.90;;;;;;5039044;28;20076;-75
2022/01/25 04:32:31;;;;;;;72.73;34.40;;;4.10;99.90;;;;;;5040531;28;20053;-75
2022/01/25 04:35:13;;;;;;;79.17;35.70;;;4.10;99.90;;;;;;5089326;28;20052;-75
2022/01/25 04:49:01;;;;;;;72.70;33.50;;;4.10;99.90;;;;;;5053312;28;20041;-74
2022/01/25 04:56:33;;;;;;;74.40;33.93;;;4.10;99.90;;;;;;5064547;28;20165;-74
2022/01/25 04:59:11;;;;;;;73.27;32.40;;;4.10;99.90;;;;;;5055724;28;20056;-73
2022/01/25 05:01:38;;;;;;;74.33;33.03;;;4.10;99.90;;;;;;5055914;28;20051;-74
2022/01/25 05:04:10;;;;;;;72.83;32.43;;;4.10;99.90;;;;;;5039020;28;20037;-74
2022/01/25 05:06:36;;;;;;;71.63;34.00;;;4.10;99.90;;;;;;5027037;28;20048;-74
2022/01/25 05:09:12;;;;;;;74.57;32.97;;;4.10;99.90;;;;;;5059226;28;20263;-74
2022/01/25 05:11:43;;;;;;;75.50;33.73;;;4.10;99.90;;;;;;5042928;28;20072;-75
2022/01/25 05:14:16;;;;;;;77.13;34.33;;;4.10;99.90;;;;;;5054674;28;20052;-74
2022/01/25 05:17:02;;;;;;;74.77;35.00;;;4.10;99.90;;;;;;5040461;28;20051;-74
2022/01/25 05:24:37;;;;;;;77.23;33.57;;;4.10;99.90;;;;;;5055086;28;20064;-74
2022/01/25 05:27:08;;;;;;;78.00;35.00;;;4.10;99.90;;;;;;5062715;28;20616;-74
2022/01/25 05:29:34;;;;;;;76.83;34.13;;;4.10;99.90;;;;;;5037524;28;20098;-74
2022/01/25 05:32:00;;;;;;;74.27;33.83;;;4.10;99.90;;;;;;5037864;28;20542;-74
2022/01/25 05:34:26;;;;;;;75.47;34.40;;;4.10;99.90;;;;;;5053907;28;20045;-74
2022/01/25 05:36:52;;;;;;;71.80;32.70;;;4.00;99.90;;;;;;5054325;28;20052;-74
2022/01/25 05:39:26;;;;;;;76.10;33.07;;;4.10;99.90;;;;;;5054534;28;20049;-73
2022/01/25 05:41:58;;;;;;;71.30;31.90;;;4.10;99.90;;;;;;5020092;28;20037;-75
2022/01/25 05:44:40;;;;;;;76.28;33.67;;;4.10;99.90;;;;;;5054626;28;20053;-74
2022/01/25 05:47:07;;;;;;;;;;;4.10;99.90;;;;;;5054528;28;20045;-73
2022/01/25 05:49:35;;;;;;;73.90;32.10;;;4.10;99.90;;;;;;5070754;28;19932;-73
2022/01/25 05:52:06;;;;;;;74.70;33.57;;;4.10;99.90;;;;;;5054355;28;20087;-74
2022/01/25 05:54:31;;;;;;;72.90;31.43;;;4.10;99.90;;;;;;5037158;28;20060;-73
2022/01/25 05:56:57;;;;;;;78.80;33.00;;;4.10;99.90;;;;;;5053619;28;20053;-74
2022/01/25 05:59:23;;;;;;;84.33;34.77;;;4.10;99.90;;;;;;5020482;28;20041;-73
2022/01/25 06:01:49;;;;;;;79.10;35.03;;;4.10;99.90;;;;;;5057089;28;20048;-73
2022/01/25 06:04:15;;;;;;;78.80;34.97;;;4.10;99.90;;;;;;5053842;28;20045;-73
2022/01/25 06:06:41;;;;;;;75.97;34.90;;;4.10;99.90;;;;;;5054087;28;20052;-74
2022/01/25 06:09:07;;;;;;;76.07;32.83;;;4.10;99.90;;;;;;5067885;28;20100;-73
2022/01/25 06:11:33;;;;;;;77.17;34.03;;;4.10;99.90;;;;;;5044935;28;20518;-74
2022/01/25 06:14:00;;;;;;;70.47;32.80;;;4.10;99.90;;;;;;5037915;28;20052;-74
2022/01/25 06:16:28;;;;;;;71.77;32.47;;;4.10;99.90;;;;;;5041040;28;20052;-74
2022/01/25 06:18:58;;;;;;;73.80;31.90;;;4.10;99.90;;;;;;5068101;28;20048;-73
2022/01/25 06:21:23;;;;;;;74.67;33.80;;;4.20;99.90;;;;;;5063907;28;20116;-74
2022/01/25 06:23:50;;;;;;;72.43;32.50;;;4.10;99.90;;;;;;5044400;28;20068;-74
2022/01/25 06:26:17;;;;;;;72.20;32.40;;;4.10;99.90;;;;;;5064272;28;20048;-74
2022/01/25 06:28:43;;;;;;;76.00;34.07;;;4.10;99.90;;;;;;5025265;28;20262;-74
2022/01/25 06:31:09;;;;;;;75.77;33.77;;;4.10;99.90;;;;;;5060317;28;20056;-75
2022/01/25 06:33:37;;;;;;;72.43;33.43;;;4.10;99.90;;;;;;5061119;28;20488;-74
2022/01/25 06:36:03;;;;;;;79.03;34.63;;;4.10;99.90;;;;;;5036965;28;20131;-73
2022/01/25 06:38:29;;;;;;;70.40;31.67;;;4.10;99.90;;;;;;5020694;28;20057;-74
2022/01/25 06:40:55;;;;;;;74.77;30.93;;;4.10;99.90;;;;;;5036692;28;20529;-76
2022/01/25 06:43:21;;;;;;;70.07;31.47;;;4.10;99.90;;;;;;5054680;28;20523;-77
2022/01/25 06:45:55;;;;;;;74.90;33.33;;;4.10;99.90;;;;;;5040156;28;20045;-77
2022/01/25 06:48:21;;;;;;;75.77;33.03;;;4.10;99.90;;;;;;5088893;28;20050;-75
2022/01/25 06:50:47;;;;;;;78.10;35.07;;;4.10;99.90;;;;;;5036777;28;20055;-76
2022/01/25 06:53:12;;;;;;;74.27;32.40;;;4.10;99.90;;;;;;5043467;28;20056;-77
2022/01/25 06:55:39;;;;;;;69.77;32.10;;;4.10;99.90;;;;;;5036123;28;20041;-76
2022/01/25 06:58:04;;;;;;;73.23;33.70;;;4.10;99.90;;;;;;5087274;28;20049;-76
2022/01/25 07:00:30;;;;;;;77.33;34.30;;;4.10;99.90;;;;;;5053645;28;20069;-79
2022/01/25 07:02:56;;;;;;;81.63;34.67;;;4.10;99.90;;;;;;5040249;28;20045;-79
2022/01/25 07:05:22;;;;;;;77.17;33.23;;;4.20;99.90;;;;;;5045967;28;20037;-82
2022/01/25 07:07:48;;;;;;;75.80;32.47;;;4.20;99.90;;;;;;5030499;28;20094;-77
2022/01/25 07:10:14;;;;;;;70.47;32.50;;;4.20;99.90;;;;;;5070962;28;20063;-76
2022/01/25 07:12:40;;;;;;;66.77;30.30;;;4.20;99.90;;;;;;5052524;28;20051;-77
2022/01/25 07:15:06;;;;;;;73.97;33.97;;;4.20;99.90;;;;;;5019197;28;20064;-78
2022/01/25 07:17:32;;;;;;;77.00;33.77;;;4.10;99.90;;;;;;5052780;28;20033;-76
2022/01/25 07:19:58;;;;;;;73.93;33.97;;;4.20;99.90;;;;;;5055989;28;20075;-75
2022/01/25 07:22:23;;;;;;;68.13;32.20;;;4.10;99.90;;;;;;5039200;28;20041;-73
2022/01/25 07:24:49;;;;;;;74.33;33.27;;;4.20;99.90;;;;;;5055454;28;20278;-75
2022/01/25 07:27:15;;;;;;;69.57;31.77;;;4.20;99.90;;;;;;5085345;28;20485;-76
2022/01/25 07:29:41;;;;;;;78.37;33.40;;;4.20;99.90;;;;;;5048968;28;20064;-75
2022/01/25 07:32:07;;;;;;;79.43;33.37;;;4.20;99.90;;;;;;5024514;28;20072;-75
2022/01/25 07:34:32;;;;;;;71.43;34.00;;;4.20;99.90;;;;;;5036161;28;20037;-76
2022/01/25 07:36:58;;;;;;;80.63;34.43;;;4.20;99.90;;;;;;5014984;28;20044;-76
2022/01/25 07:39:26;;;;;;;76.77;33.07;;;4.20;99.90;;;;;;5033684;28;20048;-75
2022/01/25 07:41:57;;;;;;;75.70;32.40;;;4.20;99.90;;;;;;5016491;28;20037;-75
2022/01/25 07:44:27;;;;;;;73.27;32.57;;;4.20;99.90;;;;;;5049178;28;20064;-75
2022/01/25 07:46:52;;;;;;;71.60;33.40;;;4.10;99.90;;;;;;5081734;28;20052;-75
2022/01/25 07:49:18;;;;;;;76.80;32.67;;;4.20;99.90;;;;;;5048456;28;20730;-75
2022/01/25 07:51:44;;;;;;;76.40;34.03;;;4.10;99.90;;;;;;5031257;28;20566;-75
2022/01/25 07:54:10;;;;;;;78.60;33.80;;;4.10;99.90;;;;;;5046165;28;20025;-74
2022/01/25 07:56:36;;;;;;;72.80;32.63;;;4.10;99.90;;;;;;5032033;28;20044;-75
2022/01/25 07:59:02;;;;;;;78.20;34.47;;;4.10;99.90;;;;;;5047168;28;20045;-74
2022/01/25 08:01:28;;;;;;;74.80;33.50;;;4.20;99.90;;;;;;5073029;28;20083;-75
2022/01/25 08:03:54;;;;;;;73.23;33.57;;;4.20;99.90;;;;;;5030342;28;20068;-76
2022/01/25 08:06:21;;;;;;;74.23;32.07;;;4.10;99.90;;;;;;5047764;28;20049;-75
2022/01/25 08:08:47;;;;;;;77.63;33.30;;;4.20;99.90;;;;;;5016136;28;20045;-75
2022/01/25 08:11:13;;;;;;;79.60;33.27;;;4.10;99.90;;;;;;5029941;28;20048;-74
2022/01/25 08:13:46;;;;;;;79.17;35.10;;;4.10;99.90;;;;;;5046623;28;20052;-74
2022/01/25 08:16:12;;;;;;;74.10;33.10;;;4.10;99.90;;;;;;5047029;28;20124;-75
2022/01/25 08:18:38;;;;;;;79.03;33.50;;;4.10;99.90;;;;;;5047898;28;20539;-74
2022/01/25 08:21:03;;;;;;;74.20;31.90;;;4.10;99.90;;;;;;5047441;28;20041;-75
2022/01/25 08:23:29;;;;;;;77.13;34.40;;;4.20;99.90;;;;;;5031231;28;20092;-75
2022/01/25 08:25:55;;;;;;;77.60;33.60;;;4.20;99.90;;;;;;5014304;28;20033;-75
2022/01/25 08:28:21;;;;;;;76.27;33.23;;;4.20;99.90;;;;;;5031993;28;20479;-74
2022/01/25 08:30:47;;;;;;;69.60;30.50;;;4.30;99.90;;;;;;5030125;28;20053;-75
2022/01/25 08:33:13;;;;;;;72.47;33.07;;;4.20;99.90;;;;;;5046676;28;20055;-75
2022/01/25 08:35:39;;;;;;;73.77;33.13;;;4.20;99.90;;;;;;5031464;28;20053;-74
2022/01/25 08:38:05;;;;;;;74.90;32.70;;;4.30;99.90;;;;;;5046920;28;20568;-74
2022/01/25 08:40:30;;;;;;;72.20;32.17;;;4.20;99.90;;;;;;5048155;28;20041;-75
2022/01/25 08:42:57;;;;;;;76.40;32.67;;;4.20;99.90;;;;;;5014796;28;20045;-74
2022/01/25 08:45:23;;;;;;;74.30;33.40;;;4.20;99.90;;;;;;5030976;28;20075;-74
2022/01/25 08:47:49;;;;;;;71.90;31.93;;;4.30;99.90;;;;;;5048015;28;20045;-75
2022/01/25 08:50:14;;;;;;;74.43;32.67;;;4.30;99.90;;;;;;5030559;28;20107;-74
2022/01/25 08:52:41;;;;;;;74.60;33.37;;;4.30;99.90;;;;;;5047286;28;20051;-74
2022/01/25 08:55:07;;;;;;;82.07;33.43;;;4.30;99.90;;;;;;5011556;28;20059;-75
2022/01/25 08:57:33;;;;;;;73.77;31.73;;;4.30;99.90;;;;;;5031127;28;20049;-74
2022/01/25 08:59:59;;;;;;;70.73;31.00;;;4.30;99.90;;;;;;5046185;28;20606;-80
2022/01/25 09:02:25;;;;;;;70.50;32.63;;;4.30;99.90;;;;;;5046856;28;20116;-75
2022/01/25 09:04:51;;;;;;;72.37;31.57;;;4.30;99.90;;;;;;5046764;28;20087;-74
2022/01/25 09:07:16;;;;;;;73.47;33.07;;;4.30;99.90;;;;;;5028786;28;20055;-74
2022/01/25 09:09:42;;;;;;;72.70;32.17;;;4.30;99.90;;;;;;5013058;28;20052;-74
2022/01/25 09:12:09;;;;;;;73.03;32.20;;;4.30;99.90;;;;;;5046373;28;20123;-74
2022/01/25 09:14:35;;;;;;;76.97;32.23;;;4.30;99.90;;;;;;5031173;28;20493;-74
2022/01/25 09:17:01;;;;;;;73.10;32.43;;;4.30;99.90;;;;;;5046007;28;20069;-74
2022/01/25 09:19:27;;;;;;;74.67;32.53;;;4.30;99.90;;;;;;5063899;28;20041;-74
2022/01/25 09:21:53;;;;;;;75.23;32.63;;;4.40;99.90;;;;;;5046729;28;20037;-74
2022/01/25 09:24:18;;;;;;;75.77;32.70;;;4.30;99.90;;;;;;5047515;28;20051;-74
2022/01/25 09:26:44;;;;;;;79.17;32.30;;;4.40;99.90;;;;;;5047549;28;20041;-74
2022/01/25 09:29:10;;;;;;;74.03;33.23;;;4.40;99.90;;;;;;5046007;28;20605;-74
2022/01/25 09:31:36;;;;;;;76.00;33.00;;;4.40;99.90;;;;;;5048769;28;20076;-74
2022/01/25 09:34:01;;;;;;;76.00;33.20;;;4.40;99.90;;;;;;5031644;28;20049;-73
2022/01/25 09:36:27;;;;;;;77.00;33.00;;;4.50;99.90;;;;;;5047233;28;20053;-74
2022/01/25 09:38:55;;;;;;;76.73;33.77;;;4.50;99.90;;;;;;5045837;28;20547;-74
2022/01/25 09:41:21;;;;;;;77.57;33.77;;;4.50;99.90;;;;;;5045635;28;20053;-73
2022/01/25 09:43:47;;;;;;;76.00;31.83;;;4.50;99.90;;;;;;5046405;28;20637;-73
2022/01/25 09:46:14;;;;;;;74.27;31.90;;;4.50;99.90;;;;;;5045728;28;20049;-74
2022/01/25 09:48:40;;;;;;;78.23;33.23;;;4.50;99.90;;;;;;5046859;28;20314;-74
2022/01/25 09:51:08;;;;;;;81.23;33.83;;;4.60;99.90;;;;;;5045901;28;20435;-75
2022/01/25 09:53:35;;;;;;;76.27;32.57;;;4.50;99.90;;;;;;5046406;28;20052;-73
2022/01/25 09:56:01;;;;;;;74.40;32.83;;;4.50;99.90;;;;;;5047035;28;20143;-73
2022/01/25 09:58:26;;;;;;;76.27;33.60;;;4.50;99.90;;;;;;5045118;28;20037;-73
2022/01/25 10:00:56;;;;;;;75.50;32.53;;;4.50;99.90;;;;;;5030271;28;20103;-74
2022/01/25 10:03:31;;;;;;;74.07;31.80;;;4.50;99.90;;;;;;5045479;28;21094;-74
2022/01/25 10:06:00;;;;;;;73.37;31.90;;;4.50;99.90;;;;;;5046549;28;20049;-74
2022/01/25 10:08:31;;;;;;;75.33;32.03;;;4.60;99.90;;;;;;5074525;28;20079;-74
2022/01/25 10:11:09;;;;;;;71.13;32.87;;;4.60;99.90;;;;;;5046335;28;20116;-73
2022/01/25 10:13:37;;;;;;;76.13;32.87;;;4.60;99.90;;;;;;5077215;28;20044;-73
2022/01/25 10:16:09;;;;;;;73.40;31.27;;;4.50;99.90;;;;;;5054833;28;20037;-74
2022/01/25 10:18:51;;;;;;;75.50;32.85;;;4.60;99.90;;;;;;5046002;28;20056;-74
2022/01/25 10:21:28;;;;;;;72.93;32.37;;;4.60;99.90;;;;;;5045830;28;20045;-73
2022/01/25 10:24:19;;;;;;;80.17;33.53;;;4.60;99.90;;;;;;5077653;28;20343;-74
2022/01/25 10:26:47;;;;;;;74.57;32.87;;;4.60;99.90;;;;;;5044247;28;20060;-73
2022/01/25 10:29:25;;;;;;;80.73;33.13;;;4.60;99.90;;;;;;5043504;28;20063;-74
2022/01/25 10:32:00;;;;;;;74.83;32.73;;;4.60;99.90;;;;;;5026642;28;20040;-73
2022/01/25 10:34:28;;;;;;;70.23;31.70;;;4.70;99.90;;;;;;5042037;28;20041;-75
2022/01/25 10:36:54;;;;;;;81.27;33.17;;;4.70;99.90;;;;;;5025410;28;20045;-74
2022/01/25 10:39:27;;;;;;;73.07;34.83;;;4.70;99.90;;;;;;5028938;28;20037;-74
2022/01/25 10:42:08;;;;;;;71.93;32.20;;;4.60;99.90;;;;;;5043162;28;20041;-73
2022/01/25 10:44:54;;;;;;;70.97;32.53;;;4.60;99.90;;;;;;5034353;28;20048;-73
2022/01/25 10:47:39;;;;;;;72.13;29.70;;;4.70;99.90;;;;;;5051993;28;20128;-74
2022/01/25 10:50:19;;;;;;;71.87;31.70;;;4.70;99.90;;;;;;5052812;28;20043;-74
2022/01/25 10:52:46;;;;;;;76.13;32.33;;;4.70;99.90;;;;;;5082615;28;20052;-74
2022/01/25 10:55:13;;;;;;;75.30;32.00;;;4.70;99.90;;;;;;5052386;28;20049;-74
2022/01/25 10:57:40;;;;;;;80.90;33.87;;;4.70;99.90;;;;;;5056218;28;20075;-73
2022/01/25 11:00:09;;;;;;;77.00;33.03;;;4.60;99.90;;;;;;5044314;28;20045;-73
2022/01/25 11:02:36;;;;;;;76.23;32.63;;;4.70;99.90;;;;;;5045148;28;20407;-73
2022/01/25 11:05:07;;;;;;;78.40;32.90;;;4.70;99.90;;;;;;5045954;28;20072;-73
2022/01/25 11:07:44;;;;;;;78.53;33.22;;;4.70;99.90;;;;;;5056237;28;20112;-73
2022/01/25 11:10:15;;;;;;;81.97;33.93;;;4.60;99.90;;;;;;5045294;28;20033;-73
2022/01/25 11:12:48;;;;;;;78.07;33.70;;;4.70;99.90;;;;;;5027999;28;20049;-73
2022/01/25 11:15:14;;;;;;;74.27;33.10;;;4.60;99.90;;;;;;5029388;28;20064;-74
2022/01/25 11:17:40;;;;;;;75.17;30.93;;;4.60;99.90;;;;;;5028960;28;20037;-74
2022/01/25 11:20:07;;;;;;;78.90;33.13;;;4.60;99.90;;;;;;5044745;28;20129;-74
2022/01/25 11:22:33;;;;;;;79.23;32.83;;;4.60;99.90;;;;;;5044665;28;20053;-73
2022/01/25 11:25:01;;;;;;;82.67;33.53;;;4.60;99.90;;;;;;5044643;28;20068;-74
2022/01/25 11:27:28;;;;;;;80.07;33.10;;;4.60;99.90;;;;;;5028545;28;20149;-74
2022/01/25 11:29:57;;;;;;;76.73;31.67;;;4.60;99.90;;;;;;5073476;28;20116;-73
2022/01/25 11:32:27;;;;;;;74.37;31.37;;;4.70;99.90;;;;;;5044120;28;20056;-73
2022/01/25 11:34:54;;;;;;;83.80;35.03;;;4.70;99.90;;;;;;5043463;28;20033;-75
2022/01/25 11:37:32;;;;;;;79.97;34.07;;;4.60;99.90;;;;;;5025713;28;20098;-74
2022/01/25 11:39:57;;;;;;;75.93;32.40;;;4.70;99.90;;;;;;5043322;28;20114;-74
2022/01/25 11:42:25;;;;;;;79.33;32.97;;;4.70;99.90;;;;;;5043036;28;20159;-75
2022/01/25 11:44:56;;;;;;;79.50;33.53;;;4.70;99.90;;;;;;5052222;28;20819;-74
2022/01/25 11:47:31;;;;;;;92.68;34.45;;;4.70;99.90;;;;;;5070534;28;20045;-73
2022/01/25 11:50:00;;;;;;;71.77;30.70;;;4.70;99.90;;;;;;5041565;28;20127;-74
2022/01/25 11:52:27;;;;;;;71.17;30.27;;;4.70;99.90;;;;;;5042826;28;20701;-74
2022/01/25 11:55:16;;;;;;;82.00;32.40;;;4.70;99.90;;;;;;5024942;28;20124;-76
2022/01/25 11:57:49;;;;;;;77.67;33.03;;;4.70;99.90;;;;;;5032941;28;20153;-75
2022/01/25 12:00:15;;;;;;;77.23;30.83;;;4.70;99.90;;;;;;5024671;28;20048;-75
2022/01/25 12:02:51;;;;;;;77.83;32.90;;;4.80;99.90;;;;;;5041576;28;20052;-74
2022/01/25 12:05:27;;;;;;;77.90;31.77;;;4.80;99.90;;;;;;5044245;28;20521;-74
2022/01/25 12:08:12;;;;;;;79.67;32.83;;;4.70;99.90;;;;;;5072108;28;20225;-75
2022/01/25 12:10:44;;;;;;;78.77;31.80;;;4.80;99.90;;;;;;5033184;28;20053;-74
2022/01/25 12:13:18;;;;;;;;;;;4.80;99.90;;;;;;5048956;28;20073;-74
2022/01/25 12:15:45;;;;;;;76.90;32.77;;;4.70;99.90;;;;;;5082329;28;20420;-74
2022/01/25 12:18:49;;;;;;;74.13;31.63;;;4.70;99.90;;;;;;5087404;28;20053;-74
2022/01/25 12:21:15;;;;;;;75.27;32.33;;;4.70;99.90;;;;;;5036007;28;20552;-74
2022/01/25 12:23:44;;;;;;;77.77;32.27;;;4.70;99.90;;;;;;5029697;28;20044;-74
2022/01/25 12:26:15;;;;;;;71.60;31.07;;;4.70;99.90;;;;;;5054905;28;20921;-74
2022/01/25 12:28:45;;;;;;;75.80;32.33;;;4.60;99.90;;;;;;5045852;28;20091;-74
2022/01/25 12:31:16;;;;;;;79.37;31.93;;;4.70;99.90;;;;;;5046913;28;20117;-74
2022/01/25 12:33:43;;;;;;;77.50;33.67;;;4.70;99.90;;;;;;5047498;28;20123;-74
2022/01/25 12:36:09;;;;;;;80.20;32.97;;;4.60;99.90;;;;;;5046262;28;20811;-74
2022/01/25 12:38:38;;;;;;;74.13;31.87;;;4.70;99.90;;;;;;5030680;28;20043;-73
2022/01/25 12:41:23;;;;;;;76.60;32.20;;;4.70;99.90;;;;;;5047162;28;20049;-74
2022/01/25 12:43:53;;;;;;;83.97;34.03;;;4.70;99.90;;;;;;5047008;28;20049;-75
2022/01/25 12:46:25;;;;;;;77.87;32.97;;;4.70;99.90;;;;;;5046141;28;20182;-74
2022/01/25 12:48:55;;;;;;;73.82;32.05;;;4.70;99.90;;;;;;5047936;28;20060;-73
2022/01/25 12:51:27;;;;;;;78.27;32.67;;;4.60;99.90;;;;;;5046546;28;20076;-73
2022/01/25 12:53:55;;;;;;;74.32;32.50;;;4.60;99.90;;;;;;5078866;28;20051;-74
2022/01/25 12:56:30;;;;;;;80.17;31.77;;;4.60;99.90;;;;;;5030065;28;20068;-74
2022/01/25 12:58:59;;;;;;;78.07;32.53;;;4.60;99.90;;;;;;5047236;28;20126;-73
2022/01/25 13:01:27;;;;;;;75.60;32.63;;;4.60;99.90;;;;;;5046431;28;20044;-74
2022/01/25 13:03:55;;;;;;;75.67;30.47;;;4.70;99.90;;;;;;5046377;28;20045;-74
2022/01/25 13:06:24;;;;;;;82.00;33.13;;;4.70;99.90;;;;;;5029567;28;20037;-74
2022/01/25 13:09:22;;;;;;;72.23;31.23;;;4.70;99.90;;;;;;5046234;28;20037;-74
2022/01/25 13:14:48;;;;;;;71.23;30.43;;;4.70;99.90;;;;;;5047497;28;20105;-74
2022/01/25 13:17:18;;;;;;;77.28;32.72;;;4.70;99.90;;;;;;5029080;28;20141;-74
2022/01/25 13:19:49;;;;;;;80.90;31.30;;;4.70;99.90;;;;;;5045839;28;20041;-74
2022/01/25 13:22:20;;;;;;;76.72;32.55;;;4.70;99.90;;;;;;5046297;28;20075;-73
2022/01/25 13:25:08;;;;;;;73.10;31.63;;;4.70;99.90;;;;;;5029090;28;20175;-76
2022/01/25 13:27:48;;;;;;;75.67;32.30;;;4.70;99.90;;;;;;5048055;28;20052;-74
2022/01/25 13:33:00;;;;;;;76.33;30.97;;;4.70;99.90;;;;;;5044996;28;20076;-74
2022/01/25 13:35:32;;;;;;;76.83;32.97;;;4.70;99.90;;;;;;5046060;28;20049;-74
2022/01/25 13:38:07;;;;;;;76.32;32.75;;;4.70;99.90;;;;;;5030344;28;20144;-74
2022/01/25 13:46:43;;;;;;;74.87;32.53;;;4.70;99.90;;;;;;5045710;28;20053;-74
2022/01/25 13:49:19;;;;;;;80.50;32.37;;;4.70;99.90;;;;;;5047291;28;20049;-74
2022/01/25 13:51:53;;;;;;;79.97;31.80;;;4.70;99.90;;;;;;5046045;28;20730;-74
2022/01/25 13:54:22;;;;;;;73.10;30.60;;;4.70;99.90;;;;;;5044582;28;20052;-73
2022/01/25 13:56:48;;;;;;;75.93;31.97;;;4.70;99.90;;;;;;5046906;28;20053;-74
2022/01/25 13:59:15;;;;;;;80.07;33.07;;;4.60;99.90;;;;;;5045558;28;20084;-73
2022/01/25 14:01:42;;;;;;;79.00;31.90;;;4.60;99.90;;;;;;5029047;28;20045;-74
2022/01/25 14:04:14;;;;;;;75.63;33.67;;;4.70;99.90;;;;;;5045494;28;20147;-75
2022/01/25 14:06:42;;;;;;;81.00;34.23;;;4.70;99.90;;;;;;5046198;28;20048;-73
2022/01/25 14:09:08;;;;;;;80.87;31.80;;;4.60;99.90;;;;;;5029505;28;20052;-74
2022/01/25 14:22:49;;;;;;;77.93;32.07;;;4.70;99.90;;;;;;5065239;28;20033;-74
2022/01/25 14:25:37;;;;;;;75.20;31.63;;;4.60;99.90;;;;;;5044400;28;20083;-74
2022/01/25 14:28:13;;;;;;;76.53;30.67;;;4.60;99.90;;;;;;5044968;28;20068;-74
2022/01/25 14:30:47;;;;;;;75.03;31.60;;;4.60;99.90;;;;;;5046536;28;20098;-73
2022/01/25 14:33:19;;;;;;;79.60;31.77;;;4.60;99.90;;;;;;5028896;28;20044;-73
2022/01/25 14:36:00;;;;;;;79.83;32.70;;;4.60;99.90;;;;;;5045456;28;20055;-74
2022/01/25 14:38:28;;;;;;;74.63;31.63;;;4.60;99.90;;;;;;5028263;28;20188;-74
2022/01/25 14:41:09;;;;;;;78.23;31.83;;;4.60;99.90;;;;;;5045206;28;20108;-74
2022/01/25 14:43:50;;;;;;;79.10;32.27;;;4.60;99.90;;;;;;5029095;28;20083;-74
2022/01/25 14:46:26;;;;;;;73.43;31.97;;;4.60;99.90;;;;;;5028588;28;20064;-75
2022/01/25 14:49:06;;;;;;;75.53;30.40;;;4.50;99.90;;;;;;5047378;28;20179;-74